sensor_id;sensor_type;location;lat;lon;timestamp;pressure;altitude;pressure_sealevel;temperature;humidity
47897;BME280;39629;51.400;5.494;2023-08-06T00:02:27;100134.00;;;14.40;100.00
47897;BME280;39629;51.400;5.494;2023-08-06T00:07:30;100136.53;;;14.43;100.00
47897;BME280;39629;51.400;5.494;2023-08-06T00:12:31;100135.69;;;14.41;100.00
47897;BME280;39629;51.400;5.494;2023-08-06T00:17:33;100134.06;;;14.37;100.00
47897;BME280;39629;51.400;5.494;2023-08-06T00:22:37;100128.69;;;14.40;100.00
47897;BME280;39629;51.400;5.494;2023-08-06T00:27:39;100124.50;;;14.33;100.00
47897;BME280;39629;51.400;5.494;2023-08-06T00:32:41;100124.50;;;14.33;100.00
47897;BME280;39629;51.400;5.494;2023-08-06T00:37:44;100124.41;;;14.36;100.00
47897;BME280;39629;51.400;5.494;2023-08-06T00:42:46;100112.06;;;14.35;100.00
47897;BME280;39629;51.400;5.494;2023-08-06T00:47:48;100119.22;;;14.33;100.00
47897;BME280;39629;51.400;5.494;2023-08-06T00:52:52;100107.75;;;14.32;100.00
47897;BME280;39629;51.400;5.494;2023-08-06T00:57:54;100110.47;;;14.29;100.00
47897;BME280;39629;51.400;5.494;2023-08-06T01:02:57;100107.78;;;14.30;100.00
47897;BME280;39629;51.400;5.494;2023-08-06T01:08:14;100104.28;;;14.30;100.00
47897;BME280;39629;51.400;5.494;2023-08-06T01:13:24;100101.84;;;14.22;100.00
47897;BME280;39629;51.400;5.494;2023-08-06T01:18:29;100109.06;;;14.17;100.00
47897;BME280;39629;51.400;5.494;2023-08-06T01:23:32;100111.00;;;14.12;100.00
47897;BME280;39629;51.400;5.494;2023-08-06T01:28:40;100105.75;;;14.09;100.00
47897;BME280;39629;51.400;5.494;2023-08-06T01:33:46;100104.06;;;14.08;100.00
47897;BME280;39629;51.400;5.494;2023-08-06T01:38:51;100100.66;;;14.03;100.00
47897;BME280;39629;51.400;5.494;2023-08-06T01:43:54;100106.69;;;14.08;100.00
47897;BME280;39629;51.400;5.494;2023-08-06T01:48:55;100105.69;;;14.12;100.00
47897;BME280;39629;51.400;5.494;2023-08-06T01:53:58;100105.00;;;14.05;100.00
47897;BME280;39629;51.400;5.494;2023-08-06T01:59:00;100097.88;;;14.07;100.00
47897;BME280;39629;51.400;5.494;2023-08-06T02:04:02;100101.31;;;14.11;100.00
47897;BME280;39629;51.400;5.494;2023-08-06T02:09:05;100099.47;;;14.14;100.00
47897;BME280;39629;51.400;5.494;2023-08-06T02:14:06;100097.75;;;14.12;100.00
47897;BME280;39629;51.400;5.494;2023-08-06T02:19:08;100099.75;;;14.04;100.00
47897;BME280;39629;51.400;5.494;2023-08-06T02:24:11;100096.41;;;13.97;100.00
47897;BME280;39629;51.400;5.494;2023-08-06T02:29:12;100095.56;;;13.96;100.00
47897;BME280;39629;51.400;5.494;2023-08-06T02:34:16;100093.19;;;13.87;100.00
47897;BME280;39629;51.400;5.494;2023-08-06T02:39:20;100085.09;;;13.92;100.00
47897;BME280;39629;51.400;5.494;2023-08-06T02:44:22;100096.53;;;13.94;100.00
47897;BME280;39629;51.400;5.494;2023-08-06T02:49:23;100086.00;;;13.91;100.00
47897;BME280;39629;51.400;5.494;2023-08-06T02:54:26;100085.97;;;13.92;100.00
47897;BME280;39629;51.400;5.494;2023-08-06T02:59:30;100081.69;;;13.88;100.00
47897;BME280;39629;51.400;5.494;2023-08-06T03:04:38;100078.91;;;13.93;100.00
47897;BME280;39629;51.400;5.494;2023-08-06T03:09:43;100072.75;;;13.92;100.00
47897;BME280;39629;51.400;5.494;2023-08-06T03:14:45;100075.56;;;13.85;100.00
47897;BME280;39629;51.400;5.494;2023-08-06T03:19:46;100073.13;;;13.78;100.00
47897;BME280;39629;51.400;5.494;2023-08-06T03:24:51;100071.03;;;13.91;100.00
47897;BME280;39629;51.400;5.494;2023-08-06T03:29:55;100078.06;;;13.92;100.00
47897;BME280;39629;51.400;5.494;2023-08-06T03:35:00;100083.19;;;13.97;100.00
47897;BME280;39629;51.400;5.494;2023-08-06T03:40:07;100076.06;;;14.01;100.00
47897;BME280;39629;51.400;5.494;2023-08-06T03:45:09;100088.44;;;13.99;100.00
47897;BME280;39629;51.400;5.494;2023-08-06T03:50:14;100080.44;;;14.00;100.00
47897;BME280;39629;51.400;5.494;2023-08-06T03:55:17;100089.19;;;14.04;100.00
47897;BME280;39629;51.400;5.494;2023-08-06T04:00:18;100089.00;;;14.10;100.00
47897;BME280;39629;51.400;5.494;2023-08-06T04:05:26;100090.88;;;14.06;100.00
47897;BME280;39629;51.400;5.494;2023-08-06T04:10:29;100090.94;;;14.03;100.00
47897;BME280;39629;51.400;5.494;2023-08-06T04:15:33;100097.22;;;13.99;100.00
47897;BME280;39629;51.400;5.494;2023-08-06T04:20:35;100104.06;;;14.08;100.00
47897;BME280;39629;51.400;5.494;2023-08-06T04:25:37;100101.53;;;14.03;100.00
47897;BME280;39629;51.400;5.494;2023-08-06T04:30:40;100102.41;;;14.04;100.00
47897;BME280;39629;51.400;5.494;2023-08-06T04:35:42;100108.84;;;13.93;100.00
47897;BME280;39629;51.400;5.494;2023-08-06T04:40:45;100114.94;;;13.97;100.00
47897;BME280;39629;51.400;5.494;2023-08-06T04:45:47;100115.72;;;14.01;100.00
47897;BME280;39629;51.400;5.494;2023-08-06T04:50:50;100120.09;;;14.02;100.00
47897;BME280;39629;51.400;5.494;2023-08-06T04:55:53;100119.31;;;13.98;100.00
47897;BME280;39629;51.400;5.494;2023-08-06T05:00:54;100130.66;;;14.02;100.00
47897;BME280;39629;51.400;5.494;2023-08-06T05:05:56;100136.16;;;13.95;100.00
47897;BME280;39629;51.400;5.494;2023-08-06T05:10:59;100139.25;;;14.10;100.00
47897;BME280;39629;51.400;5.494;2023-08-06T05:16:01;100143.28;;;14.23;100.00
47897;BME280;39629;51.400;5.494;2023-08-06T05:21:02;100147.34;;;14.35;100.00
47897;BME280;39629;51.400;5.494;2023-08-06T05:26:05;100144.97;;;14.56;100.00
47897;BME280;39629;51.400;5.494;2023-08-06T05:31:07;100155.81;;;14.76;100.00
47897;BME280;39629;51.400;5.494;2023-08-06T05:36:08;100164.28;;;14.88;100.00
47897;BME280;39629;51.400;5.494;2023-08-06T05:41:11;100171.69;;;15.06;100.00
47897;BME280;39629;51.400;5.494;2023-08-06T05:46:12;100172.41;;;15.10;100.00
47897;BME280;39629;51.400;5.494;2023-08-06T05:51:14;100185.53;;;15.16;100.00
47897;BME280;39629;51.400;5.494;2023-08-06T05:56:18;100185.78;;;15.07;100.00
47897;BME280;39629;51.400;5.494;2023-08-06T06:01:20;100198.63;;;15.47;100.00
47897;BME280;39629;51.400;5.494;2023-08-06T06:06:21;100201.47;;;15.68;100.00
47897;BME280;39629;51.400;5.494;2023-08-06T06:11:24;100202.53;;;15.62;100.00
47897;BME280;39629;51.400;5.494;2023-08-06T06:16:26;100206.69;;;15.96;100.00
47897;BME280;39629;51.400;5.494;2023-08-06T06:21:27;100210.53;;;15.88;100.00
47897;BME280;39629;51.400;5.494;2023-08-06T06:26:30;100218.66;;;15.83;100.00
47897;BME280;39629;51.400;5.494;2023-08-06T06:31:32;100225.47;;;15.90;100.00
47897;BME280;39629;51.400;5.494;2023-08-06T06:36:34;100233.06;;;16.01;100.00
47897;BME280;39629;51.400;5.494;2023-08-06T06:41:36;100249.03;;;15.73;100.00
47897;BME280;39629;51.400;5.494;2023-08-06T06:46:45;100255.09;;;15.51;100.00
47897;BME280;39629;51.400;5.494;2023-08-06T06:51:47;100253.59;;;15.42;100.00
47897;BME280;39629;51.400;5.494;2023-08-06T06:56:50;100268.59;;;15.15;100.00
47897;BME280;39629;51.400;5.494;2023-08-06T07:01:51;100275.50;;;14.59;100.00
47897;BME280;39629;51.400;5.494;2023-08-06T07:06:53;100287.91;;;13.91;100.00
47897;BME280;39629;51.400;5.494;2023-08-06T07:11:56;100291.59;;;13.86;100.00
47897;BME280;39629;51.400;5.494;2023-08-06T07:16:57;100293.47;;;13.79;100.00
47897;BME280;39629;51.400;5.494;2023-08-06T07:21:59;100306.28;;;13.60;100.00
47897;BME280;39629;51.400;5.494;2023-08-06T07:27:02;100321.31;;;13.58;100.00
47897;BME280;39629;51.400;5.494;2023-08-06T07:32:06;100330.19;;;13.55;100.00
47897;BME280;39629;51.400;5.494;2023-08-06T07:37:08;100335.59;;;13.51;100.00
47897;BME280;39629;51.400;5.494;2023-08-06T07:42:11;100346.81;;;13.60;100.00
47897;BME280;39629;51.400;5.494;2023-08-06T07:47:13;100350.59;;;13.49;100.00
47897;BME280;39629;51.400;5.494;2023-08-06T07:52:14;100365.56;;;13.50;100.00
47897;BME280;39629;51.400;5.494;2023-08-06T07:57:17;100368.28;;;13.45;100.00
47897;BME280;39629;51.400;5.494;2023-08-06T08:02:19;100369.09;;;13.49;100.00
47897;BME280;39629;51.400;5.494;2023-08-06T08:07:20;100373.38;;;13.54;100.00
47897;BME280;39629;51.400;5.494;2023-08-06T08:12:23;100386.47;;;13.59;100.00
47897;BME280;39629;51.400;5.494;2023-08-06T08:17:25;100385.34;;;13.71;100.00
47897;BME280;39629;51.400;5.494;2023-08-06T08:22:27;100385.28;;;13.74;100.00
47897;BME280;39629;51.400;5.494;2023-08-06T08:27:29;100393.13;;;13.78;100.00
47897;BME280;39629;51.400;5.494;2023-08-06T08:32:31;100400.00;;;13.87;100.00
47897;BME280;39629;51.400;5.494;2023-08-06T08:37:33;100402.09;;;13.70;100.00
47897;BME280;39629;51.400;5.494;2023-08-06T08:42:36;100402.69;;;13.86;100.00
47897;BME280;39629;51.400;5.494;2023-08-06T08:47:38;100410.41;;;13.93;100.00
47897;BME280;39629;51.400;5.494;2023-08-06T08:52:40;100410.72;;;14.17;100.00
47897;BME280;39629;51.400;5.494;2023-08-06T08:57:43;100413.03;;;14.31;100.00
47897;BME280;39629;51.400;5.494;2023-08-06T09:02:45;100430.47;;;14.40;100.00
47897;BME280;39629;51.400;5.494;2023-08-06T09:07:48;100433.03;;;14.43;100.00
47897;BME280;39629;51.400;5.494;2023-08-06T09:12:52;100439.00;;;14.51;100.00
47897;BME280;39629;51.400;5.494;2023-08-06T09:17:55;100452.56;;;14.39;100.00
47897;BME280;39629;51.400;5.494;2023-08-06T09:22:56;100456.09;;;14.38;100.00
47897;BME280;39629;51.400;5.494;2023-08-06T09:27:59;100465.63;;;14.46;100.00
47897;BME280;39629;51.400;5.494;2023-08-06T09:33:01;100479.19;;;14.33;100.00
47897;BME280;39629;51.400;5.494;2023-08-06T09:38:07;100483.22;;;14.47;100.00
47897;BME280;39629;51.400;5.494;2023-08-06T09:43:11;100488.47;;;14.51;100.00
47897;BME280;39629;51.400;5.494;2023-08-06T09:48:13;100496.50;;;14.46;100.00
47897;BME280;39629;51.400;5.494;2023-08-06T09:53:14;100498.38;;;14.41;100.00
47897;BME280;39629;51.400;5.494;2023-08-06T09:58:17;100510.72;;;14.78;100.00
47897;BME280;39629;51.400;5.494;2023-08-06T10:03:19;100502.13;;;14.68;100.00
47897;BME280;39629;51.400;5.494;2023-08-06T10:08:22;100514.38;;;14.72;100.00
47897;BME280;39629;51.400;5.494;2023-08-06T10:13:25;100516.81;;;14.81;100.00
47897;BME280;39629;51.400;5.494;2023-08-06T10:18:28;100517.75;;;14.79;100.00
47897;BME280;39629;51.400;5.494;2023-08-06T10:23:34;100519.00;;;14.64;100.00
47897;BME280;39629;51.400;5.494;2023-08-06T10:28:39;100523.22;;;14.71;100.00
47897;BME280;39629;51.400;5.494;2023-08-06T10:33:42;100527.66;;;14.71;100.00
47897;BME280;39629;51.400;5.494;2023-08-06T10:38:46;100515.75;;;14.53;100.00
47897;BME280;39629;51.400;5.494;2023-08-06T10:43:49;100524.13;;;14.72;100.00
47897;BME280;39629;51.400;5.494;2023-08-06T10:48:51;100521.34;;;14.76;100.00
47897;BME280;39629;51.400;5.494;2023-08-06T10:53:53;100529.03;;;14.87;100.00
47897;BME280;39629;51.400;5.494;2023-08-06T10:58:57;100537.38;;;15.05;100.00
47897;BME280;39629;51.400;5.494;2023-08-06T11:04:02;100533.84;;;15.06;100.00
47897;BME280;39629;51.400;5.494;2023-08-06T11:09:05;100538.75;;;15.21;100.00
47897;BME280;39629;51.400;5.494;2023-08-06T11:14:15;100540.34;;;15.28;100.00
47897;BME280;39629;51.400;5.494;2023-08-06T11:19:16;100545.03;;;15.50;100.00
47897;BME280;39629;51.400;5.494;2023-08-06T11:24:18;100545.72;;;15.25;100.00
47897;BME280;39629;51.400;5.494;2023-08-06T11:29:21;100542.44;;;15.48;100.00
47897;BME280;39629;51.400;5.494;2023-08-06T11:34:23;100544.84;;;15.58;100.00
47897;BME280;39629;51.400;5.494;2023-08-06T11:39:25;100547.03;;;15.42;100.00
47897;BME280;39629;51.400;5.494;2023-08-06T11:44:29;100548.50;;;15.83;100.00
47897;BME280;39629;51.400;5.494;2023-08-06T11:49:38;100544.69;;;15.94;100.00
47897;BME280;39629;51.400;5.494;2023-08-06T11:54:40;100552.81;;;16.17;100.00
47897;BME280;39629;51.400;5.494;2023-08-06T11:59:43;100552.13;;;16.11;100.00
47897;BME280;39629;51.400;5.494;2023-08-06T12:05:01;100548.31;;;15.91;100.00
47897;BME280;39629;51.400;5.494;2023-08-06T12:10:05;100555.31;;;16.22;100.00
47897;BME280;39629;51.400;5.494;2023-08-06T12:15:09;100560.19;;;16.08;100.00
47897;BME280;39629;51.400;5.494;2023-08-06T12:20:11;100572.75;;;15.71;100.00
47897;BME280;39629;51.400;5.494;2023-08-06T12:25:13;100591.59;;;15.62;100.00
47897;BME280;39629;51.400;5.494;2023-08-06T12:30:16;100577.84;;;15.79;100.00
47897;BME280;39629;51.400;5.494;2023-08-06T12:35:18;100583.69;;;15.60;100.00
47897;BME280;39629;51.400;5.494;2023-08-06T12:40:20;100584.19;;;15.73;100.00
47897;BME280;39629;51.400;5.494;2023-08-06T12:45:23;100582.44;;;15.72;100.00
47897;BME280;39629;51.400;5.494;2023-08-06T12:50:25;100588.66;;;16.02;100.00
47897;BME280;39629;51.400;5.494;2023-08-06T12:55:26;100587.50;;;15.81;100.00
47897;BME280;39629;51.400;5.494;2023-08-06T13:00:29;100596.41;;;16.09;100.00
47897;BME280;39629;51.400;5.494;2023-08-06T13:05:31;100596.91;;;16.23;100.00
47897;BME280;39629;51.400;5.494;2023-08-06T13:10:32;100601.19;;;16.27;100.00
47897;BME280;39629;51.400;5.494;2023-08-06T13:15:35;100605.88;;;16.77;100.00
47897;BME280;39629;51.400;5.494;2023-08-06T13:20:38;100606.56;;;16.56;100.00
47897;BME280;39629;51.400;5.494;2023-08-06T13:25:40;100607.19;;;16.92;100.00
47897;BME280;39629;51.400;5.494;2023-08-06T13:30:43;100612.88;;;17.07;100.00
47897;BME280;39629;51.400;5.494;2023-08-06T13:35:44;100621.78;;;16.79;100.00
47897;BME280;39629;51.400;5.494;2023-08-06T13:40:46;100624.13;;;17.15;100.00
47897;BME280;39629;51.400;5.494;2023-08-06T13:45:49;100633.66;;;16.95;100.00
47897;BME280;39629;51.400;5.494;2023-08-06T13:50:50;100631.97;;;16.64;100.00
47897;BME280;39629;51.400;5.494;2023-08-06T13:55:52;100637.41;;;16.60;100.00
47897;BME280;39629;51.400;5.494;2023-08-06T14:00:55;100636.72;;;16.23;100.00
47897;BME280;39629;51.400;5.494;2023-08-06T14:05:58;100645.91;;;16.11;100.00
47897;BME280;39629;51.400;5.494;2023-08-06T14:10:59;100651.16;;;16.13;100.00
47897;BME280;39629;51.400;5.494;2023-08-06T14:16:03;100656.13;;;16.57;100.00
47897;BME280;39629;51.400;5.494;2023-08-06T14:21:04;100654.56;;;16.78;100.00
47897;BME280;39629;51.400;5.494;2023-08-06T14:26:06;100658.19;;;17.30;100.00
47897;BME280;39629;51.400;5.494;2023-08-06T14:31:09;100666.81;;;17.39;100.00
47897;BME280;39629;51.400;5.494;2023-08-06T14:36:10;100683.25;;;16.96;100.00
47897;BME280;39629;51.400;5.494;2023-08-06T14:41:12;100681.28;;;17.57;100.00
47897;BME280;39629;51.400;5.494;2023-08-06T14:46:14;100682.06;;;17.32;100.00
47897;BME280;39629;51.400;5.494;2023-08-06T14:51:16;100685.34;;;17.13;100.00
47897;BME280;39629;51.400;5.494;2023-08-06T14:56:19;100690.34;;;17.23;100.00
47897;BME280;39629;51.400;5.494;2023-08-06T15:01:22;100698.13;;;17.00;100.00
47897;BME280;39629;51.400;5.494;2023-08-06T15:06:24;100710.34;;;17.08;100.00
47897;BME280;39629;51.400;5.494;2023-08-06T15:11:26;100720.09;;;16.79;100.00
47897;BME280;39629;51.400;5.494;2023-08-06T15:16:28;100757.56;;;16.40;100.00
47897;BME280;39629;51.400;5.494;2023-08-06T15:21:30;100774.88;;;15.51;100.00
47897;BME280;39629;51.400;5.494;2023-08-06T15:26:32;100774.44;;;14.91;100.00
47897;BME280;39629;51.400;5.494;2023-08-06T15:31:37;100775.03;;;14.63;100.00
47897;BME280;39629;51.400;5.494;2023-08-06T15:36:39;100789.19;;;14.62;100.00
47897;BME280;39629;51.400;5.494;2023-08-06T15:41:41;100791.97;;;14.56;100.00
47897;BME280;39629;51.400;5.494;2023-08-06T15:46:44;100809.63;;;14.56;100.00
47897;BME280;39629;51.400;5.494;2023-08-06T15:51:45;100819.84;;;14.29;100.00
47897;BME280;39629;51.400;5.494;2023-08-06T15:56:47;100829.66;;;14.22;100.00
47897;BME280;39629;51.400;5.494;2023-08-06T16:01:50;100831.69;;;14.08;100.00
47897;BME280;39629;51.400;5.494;2023-08-06T16:06:52;100854.59;;;14.10;100.00
47897;BME280;39629;51.400;5.494;2023-08-06T16:11:53;100861.13;;;13.85;100.00
47897;BME280;39629;51.400;5.494;2023-08-06T16:16:56;100867.34;;;13.82;100.00
47897;BME280;39629;51.400;5.494;2023-08-06T16:21:58;100877.03;;;13.83;100.00
47897;BME280;39629;51.400;5.494;2023-08-06T16:26:59;100875.16;;;13.93;100.00
47897;BME280;39629;51.400;5.494;2023-08-06T16:32:03;100882.47;;;13.74;100.00
47897;BME280;39629;51.400;5.494;2023-08-06T16:37:05;100903.72;;;13.68;100.00
47897;BME280;39629;51.400;5.494;2023-08-06T16:42:07;100919.63;;;13.63;100.00
47897;BME280;39629;51.400;5.494;2023-08-06T16:47:10;100928.41;;;13.67;100.00
47897;BME280;39629;51.400;5.494;2023-08-06T16:52:11;100918.75;;;13.64;100.00
47897;BME280;39629;51.400;5.494;2023-08-06T16:57:13;100931.94;;;13.69;100.00
47897;BME280;39629;51.400;5.494;2023-08-06T17:02:15;100928.41;;;13.67;100.00
47897;BME280;39629;51.400;5.494;2023-08-06T17:07:17;100965.47;;;13.65;100.00
47897;BME280;39629;51.400;5.494;2023-08-06T17:12:19;100954.00;;;13.66;100.00
47897;BME280;39629;51.400;5.494;2023-08-06T17:17:22;100967.25;;;13.61;100.00
47897;BME280;39629;51.400;5.494;2023-08-06T17:22:24;100979.44;;;13.75;100.00
47897;BME280;39629;51.400;5.494;2023-08-06T17:27:25;100976.94;;;13.64;100.00
47897;BME280;39629;51.400;5.494;2023-08-06T17:32:28;100995.31;;;13.75;100.00
47897;BME280;39629;51.400;5.494;2023-08-06T17:37:30;100992.84;;;13.61;100.00
47897;BME280;39629;51.400;5.494;2023-08-06T17:42:31;101002.56;;;13.60;100.00
47897;BME280;39629;51.400;5.494;2023-08-06T17:47:34;101001.63;;;13.65;100.00
47897;BME280;39629;51.400;5.494;2023-08-06T17:52:36;101006.00;;;13.66;100.00
47897;BME280;39629;51.400;5.494;2023-08-06T17:57:38;101008.78;;;13.56;100.00
47897;BME280;39629;51.400;5.494;2023-08-06T18:02:41;101006.91;;;13.63;100.00
47897;BME280;39629;51.400;5.494;2023-08-06T18:07:43;101024.78;;;13.44;100.00
47897;BME280;39629;51.400;5.494;2023-08-06T18:12:45;101022.16;;;13.44;100.00
47897;BME280;39629;51.400;5.494;2023-08-06T18:17:48;101025.66;;;13.43;100.00
47897;BME280;39629;51.400;5.494;2023-08-06T18:22:50;101031.00;;;13.37;100.00
47897;BME280;39629;51.400;5.494;2023-08-06T18:27:51;101031.00;;;13.37;100.00
47897;BME280;39629;51.400;5.494;2023-08-06T18:32:54;101038.97;;;13.35;100.00
47897;BME280;39629;51.400;5.494;2023-08-06T18:37:56;101034.59;;;13.31;100.00
47897;BME280;39629;51.400;5.494;2023-08-06T18:42:59;101034.59;;;13.31;100.00
47897;BME280;39629;51.400;5.494;2023-08-06T18:48:02;101032.03;;;13.26;100.00
47897;BME280;39629;51.400;5.494;2023-08-06T18:53:04;101043.50;;;13.24;100.00
47897;BME280;39629;51.400;5.494;2023-08-06T18:58:05;101047.03;;;13.21;100.00
47897;BME280;39629;51.400;5.494;2023-08-06T19:03:10;101045.34;;;13.16;100.00
47897;BME280;39629;51.400;5.494;2023-08-06T19:08:12;101051.53;;;13.13;100.00
47897;BME280;39629;51.400;5.494;2023-08-06T19:13:14;101056.00;;;13.05;100.00
47897;BME280;39629;51.400;5.494;2023-08-06T19:18:17;101058.66;;;13.03;100.00
47897;BME280;39629;51.400;5.494;2023-08-06T19:23:18;101063.13;;;13.00;100.00
47897;BME280;39629;51.400;5.494;2023-08-06T19:28:20;101063.13;;;13.00;100.00
47897;BME280;39629;51.400;5.494;2023-08-06T19:33:26;101071.09;;;12.97;100.00
47897;BME280;39629;51.400;5.494;2023-08-06T19:38:27;101078.13;;;12.94;100.00
47897;BME280;39629;51.400;5.494;2023-08-06T19:43:29;101086.13;;;12.88;100.00
47897;BME280;39629;51.400;5.494;2023-08-06T19:48:32;101108.16;;;12.81;100.00
47897;BME280;39629;51.400;5.494;2023-08-06T19:53:34;101103.81;;;12.78;100.00
47897;BME280;39629;51.400;5.494;2023-08-06T19:58:36;101098.47;;;12.83;100.00
47897;BME280;39629;51.400;5.494;2023-08-06T20:03:39;101104.72;;;12.71;100.00
47897;BME280;39629;51.400;5.494;2023-08-06T20:08:43;101096.81;;;12.70;100.00
47897;BME280;39629;51.400;5.494;2023-08-06T20:13:45;101099.50;;;12.65;100.00
47897;BME280;39629;51.400;5.494;2023-08-06T20:18:48;101080.19;;;12.58;100.00
47897;BME280;39629;51.400;5.494;2023-08-06T20:23:49;101085.47;;;12.57;100.00
47897;BME280;39629;51.400;5.494;2023-08-06T20:28:51;101093.38;;;12.58;100.00
47897;BME280;39629;51.400;5.494;2023-08-06T20:33:54;101092.59;;;12.46;100.00
47897;BME280;39629;51.400;5.494;2023-08-06T20:38:56;101090.78;;;12.49;100.00
47897;BME280;39629;51.400;5.494;2023-08-06T20:43:57;101096.09;;;12.52;100.00
47897;BME280;39629;51.400;5.494;2023-08-06T20:49:00;101104.91;;;12.47;100.00
47897;BME280;39629;51.400;5.494;2023-08-06T20:54:02;101105.81;;;12.44;100.00
47897;BME280;39629;51.400;5.494;2023-08-06T20:59:04;101100.50;;;12.41;100.00
47897;BME280;39629;51.400;5.494;2023-08-06T21:04:06;101103.13;;;12.41;100.00
47897;BME280;39629;51.400;5.494;2023-08-06T21:09:10;101094.34;;;12.40;100.00
47897;BME280;39629;51.400;5.494;2023-08-06T21:14:12;101111.06;;;12.38;100.00
47897;BME280;39629;51.400;5.494;2023-08-06T21:19:16;101105.78;;;12.38;100.00
47897;BME280;39629;51.400;5.494;2023-08-06T21:24:17;101102.28;;;12.40;100.00
47897;BME280;39629;51.400;5.494;2023-08-06T21:29:20;101100.50;;;12.41;100.00
47897;BME280;39629;51.400;5.494;2023-08-06T21:34:23;101100.53;;;12.44;100.00
47897;BME280;39629;51.400;5.494;2023-08-06T21:39:24;101104.03;;;12.46;100.00
47897;BME280;39629;51.400;5.494;2023-08-06T21:44:26;101099.63;;;12.48;100.00
47897;BME280;39629;51.400;5.494;2023-08-06T21:49:29;101095.16;;;12.53;100.00
47897;BME280;39629;51.400;5.494;2023-08-06T21:54:30;101105.72;;;12.56;100.00
47897;BME280;39629;51.400;5.494;2023-08-06T21:59:32;101119.81;;;12.55;100.00
47897;BME280;39629;51.400;5.494;2023-08-06T22:04:35;101115.38;;;12.57;100.00
47897;BME280;39629;51.400;5.494;2023-08-06T22:09:36;101125.16;;;12.44;100.00
47897;BME280;39629;51.400;5.494;2023-08-06T22:14:38;101124.28;;;12.42;100.00
47897;BME280;39629;51.400;5.494;2023-08-06T22:19:41;101135.72;;;12.44;100.00
47897;BME280;39629;51.400;5.494;2023-08-06T22:24:43;101125.16;;;12.40;100.00
47897;BME280;39629;51.400;5.494;2023-08-06T22:29:44;101125.19;;;12.37;100.00
47897;BME280;39629;51.400;5.494;2023-08-06T22:34:47;101126.03;;;12.39;100.00
47897;BME280;39629;51.400;5.494;2023-08-06T22:39:49;101118.97;;;12.39;100.00
47897;BME280;39629;51.400;5.494;2023-08-06T22:44:50;101130.44;;;12.40;100.00
47897;BME280;39629;51.400;5.494;2023-08-06T22:49:54;101133.94;;;12.42;100.00
47897;BME280;39629;51.400;5.494;2023-08-06T22:54:55;101133.06;;;12.40;100.00
47897;BME280;39629;51.400;5.494;2023-08-06T22:59:57;101140.09;;;12.42;100.00
47897;BME280;39629;51.400;5.494;2023-08-06T23:05:00;101134.81;;;12.39;100.00
47897;BME280;39629;51.400;5.494;2023-08-06T23:10:01;101147.19;;;12.34;100.00
47897;BME280;39629;51.400;5.494;2023-08-06T23:15:06;101136.63;;;12.33;100.00
47897;BME280;39629;51.400;5.494;2023-08-06T23:20:09;101133.13;;;12.29;100.00
47897;BME280;39629;51.400;5.494;2023-08-06T23:25:11;101133.13;;;12.31;100.00
47897;BME280;39629;51.400;5.494;2023-08-06T23:30:13;101134.88;;;12.30;100.00
47897;BME280;39629;51.400;5.494;2023-08-06T23:35:16;101126.06;;;12.31;100.00
47897;BME280;39629;51.400;5.494;2023-08-06T23:40:18;101134.88;;;12.30;100.00
47897;BME280;39629;51.400;5.494;2023-08-06T23:45:21;101125.22;;;12.29;100.00
47897;BME280;39629;51.400;5.494;2023-08-06T23:50:24;101126.97;;;12.32;100.00
47897;BME280;39629;51.400;5.494;2023-08-06T23:55:28;101123.44;;;12.33;100.00
